Terminal Aerodrome Forecast
Issued by NWS Charleston, WV

Current Version | Previous Version | Graphics & Text | Print | Product List | Glossary On
Versions: 1 2 3 4 5 6 7 8 9 10 11 12 13 14 15 16 17 18 19 20 21 22 23 24 25 26 27 28
917
FTUS41 KRLX 220523
TAFBKW
TAF
KBKW 220523Z 2206/2306 15006KT P6SM -SHRA OVC050
     FM220900 14005KT 4SM -SHRA OVC027
     FM221300 14006KT 2SM -SHRA BKN008
     FM221800 16005KT 4SM -SHRA BKN014
     FM222300 17004KT P6SM BKN014
     FM230100 17004KT P6SM BKN040=

USA.gov is the U.S. government's official web portal to all federal, state and local government web resources and services.